K6OUA-11 Weather Reports


Display with metric or nautical units.
time (UTC)temp
F
wind
direction
speed
MPH
gust
MPH
rain 1hr
in
rain 24hr
in
rain mn
in
humidity
%
barometer
mb
20181018002336 73 258 4.0 5.0 0.00 0.00 0.00 30 1010.0
20181018002012 73 247 3.0 11.0 0.00 0.00 0.00 30 1009.9
20181018001731 73 247 3.0 11.0 0.00 0.00 0.00 30 1009.9
20181018001652 73 265 10.0 11.0 0.00 0.00 0.00 30 1009.8
20181018001430 73 265 10.0 11.0 0.00 0.00 0.00 30 1009.8
20181018001350 74 227 4.0 9.0 0.00 0.00 0.00 30 1009.8
20181018001129 74 227 4.0 9.0 0.00 0.00 0.00 30 1009.8
20181018001032 74 263 5.0 9.0 0.00 0.00 0.00 30 1009.8
20181018000827 74 263 5.0 9.0 0.00 0.00 0.00 30 1009.8
20181018000455 74 267 5.0 7.0 0.00 0.00 0.00 30 1009.8
20181018000227 74 267 5.0 7.0 0.00 0.00 0.00 30 1009.8
20181018000125 75 252 5.0 6.0 0.00 0.00 0.00 29 1010.0
20181017235924 75 252 5.0 6.0 0.00 0.00 0.00 29 1010.0
20181017235839 75 252 5.0 9.0 0.00 0.00 0.00 29 1009.9
20181017235625 75 252 5.0 9.0 0.00 0.00 0.00 29 1009.9
20181017235606 75 279 7.0 8.0 0.00 0.00 0.00 29 1009.8
20181017235322 75 279 7.0 8.0 0.00 0.00 0.00 29 1009.8
20181017235203 76 261 6.0 10.0 0.00 0.00 0.00 29 1010.0
20181017235021 76 261 6.0 10.0 0.00 0.00 0.00 29 1010.0
20181017234947 76 265 6.0 9.0 0.00 0.00 0.00 30 1010.0
20181017234720 76 265 6.0 9.0 0.00 0.00 0.00 30 1010.0
20181017234651 76 247 6.0 8.0 0.00 0.00 0.00 30 1010.0
20181017234419 76 247 6.0 8.0 0.00 0.00 0.00 30 1010.0
20181017233818 76 270 6.0 9.0 0.00 0.00 0.00 30 1010.1
20181017233736 76 267 6.0 7.0 0.00 0.00 0.00 31 1010.1
20181017233517 76 267 6.0 7.0 0.00 0.00 0.00 31 1010.1
20181017233413 76 256 3.0 4.0 0.00 0.00 0.00 30 1010.1
20181017233214 76 256 3.0 4.0 0.00 0.00 0.00 30 1010.1
20181017233111 77 220 4.0 7.0 0.00 0.00 0.00 30 1010.2
20181017232913 77 220 4.0 7.0 0.00 0.00 0.00 30 1010.2
20181017232219 77 270 7.0 10.0 0.00 0.00 0.00 29 1010.0
20181017232013 77 270 7.0 10.0 0.00 0.00 0.00 29 1010.0
20181017231946 77 270 7.0 11.0 0.00 0.00 0.00 29 1009.9
20181017231711 77 270 7.0 11.0 0.00 0.00 0.00 29 1009.9
20181017231618 77 272 7.0 9.0 0.00 0.00 0.00 29 1009.9
20181017231408 77 272 7.0 9.0 0.00 0.00 0.00 29 1009.9
20181017231019 78 254 5.0 10.0 0.00 0.00 0.00 28 1010.2
20181017230807 78 254 5.0 10.0 0.00 0.00 0.00 28 1010.2
20181017230722 78 270 7.0 11.0 0.00 0.00 0.00 27 1010.1
20181017230504 78 270 7.0 11.0 0.00 0.00 0.00 27 1010.1
20181017230346 78 272 7.0 10.0 0.00 0.00 0.00 27 1010.2
20181017230203 78 272 7.0 10.0 0.00 0.00 0.00 27 1010.2
20181017230110 78 258 6.0 10.0 0.00 0.00 0.00 26 1010.0
20181017225904 78 258 6.0 10.0 0.00 0.00 0.00 26 1010.0
20181017225746 78 263 5.0 10.0 0.00 0.00 0.00 27 1010.0
20181017225603 78 263 5.0 10.0 0.00 0.00 0.00 27 1010.0
20181017225448 79 263 6.0 11.0 0.00 0.00 0.00 25 1010.0
20181017225302 79 263 6.0 11.0 0.00 0.00 0.00 25 1010.0
20181017225207 79 261 8.0 11.0 0.00 0.00 0.00 25 1010.0
20181017224959 79 261 8.0 11.0 0.00 0.00 0.00 25 1010.0
20181017224937 79 263 5.0 8.0 0.00 0.00 0.00 25 1009.9
20181017224658 79 263 5.0 8.0 0.00 0.00 0.00 25 1009.9
20181017224358 79 247 6.0 12.0 0.00 0.00 0.00 24 1010.0
20181017224020 80 270 7.0 13.0 0.00 0.00 0.00 24 1009.9
20181017223756 80 270 7.0 13.0 0.00 0.00 0.00 24 1009.9
20181017223455 80 263 8.0 11.0 0.00 0.00 0.00 23 1010.0
20181017223045 80 263 9.0 12.0 0.00 0.00 0.00 22 1010.0
20181017222851 80 263 9.0 12.0 0.00 0.00 0.00 22 1010.0
20181017222551 80 254 5.0 12.0 0.00 0.00 0.00 21 1010.1
20181017222247 80 267 7.0 10.0 0.00 0.00 0.00 20 1010.0
20181017221948 80 267 7.0 10.0 0.00 0.00 0.00 20 1010.0
20181017221914 81 267 6.0 11.0 0.00 0.00 0.00 20 1010.1
20181017221648 81 267 6.0 11.0 0.00 0.00 0.00 20 1010.1
20181017221547 81 281 8.0 11.0 0.00 0.00 0.00 20 1010.2
20181017221345 81 281 8.0 11.0 0.00 0.00 0.00 20 1010.2
20181017221231 81 265 9.0 11.0 0.00 0.00 0.00 20 1010.0
20181017221044 81 265 9.0 11.0 0.00 0.00 0.00 20 1010.0
20181017221015 81 243 9.0 10.0 0.00 0.00 0.00 20 1010.0
20181017220745 81 243 9.0 10.0 0.00 0.00 0.00 20 1010.0
20181017220648 82 247 8.0 10.0 0.00 0.00 0.00 19 1010.1
20181017220444 82 247 8.0 10.0 0.00 0.00 0.00 19 1010.1
20181017220059 82 247 6.0 7.0 0.00 0.00 0.00 18 1010.1
20181017215843 82 247 6.0 7.0 0.00 0.00 0.00 18 1010.1
20181017215726 82 267 7.0 10.0 0.00 0.00 0.00 18 1010.0
20181017215539 82 267 7.0 10.0 0.00 0.00 0.00 18 1010.0
20181017215431 83 247 5.0 9.0 0.00 0.00 0.00 18 1010.1
20181017215238 83 247 5.0 9.0 0.00 0.00 0.00 18 1010.1
20181017214856 83 258 6.0 7.0 0.00 0.00 0.00 18 1010.2
20181017214637 83 258 6.0 7.0 0.00 0.00 0.00 18 1010.2
20181017214035 84 261 6.0 9.0 0.00 0.00 0.00 18 1009.9
20181017213934 84 254 7.0 9.0 0.00 0.00 0.00 17 1009.9
20181017213732 84 254 7.0 9.0 0.00 0.00 0.00 17 1009.9
20181017213646 85 245 9.0 9.0 0.00 0.00 0.00 18 1009.9
20181017213433 85 245 9.0 9.0 0.00 0.00 0.00 18 1009.9
20181017213132 85 261 6.0 9.0 0.00 0.00 0.00 17 1009.8
20181017213054 86 238 8.0 9.0 0.00 0.00 0.00 17 1010.0
20181017212829 86 238 8.0 9.0 0.00 0.00 0.00 17 1010.0
20181017212528 86 208 8.0 8.0 0.00 0.00 0.00 17 1010.2
20181017212229 87 250 6.0 9.0 0.00 0.00 0.00 16 1010.1
20181017211823 88 250 4.0 10.0 0.00 0.00 0.00 15 1010.2
20181017211627 88 250 4.0 10.0 0.00 0.00 0.00 15 1010.2
20181017211606 88 254 6.0 10.0 0.00 0.00 0.00 15 1010.3
20181017211324 88 254 6.0 10.0 0.00 0.00 0.00 15 1010.3
20181017211224 88 258 4.0 9.0 0.00 0.00 0.00 13 1010.4
20181017211024 88 258 4.0 9.0 0.00 0.00 0.00 13 1010.4
20181017211018 88 275 2.0 5.0 0.00 0.00 0.00 13 1010.4
20181017210723 88 275 2.0 5.0 0.00 0.00 0.00 13 1010.4
20181017210651 88 132 4.0 10.0 0.00 0.00 0.00 12 1010.2
20181017210423 88 132 4.0 10.0 0.00 0.00 0.00 12 1010.2
20181017210049 87 38 3.0 5.0 0.00 0.00 0.00 13 1010.3
20181017205820 87 38 3.0 5.0 0.00 0.00 0.00 13 1010.3
20181017205614 87 45 9.0 16.0 0.00 0.00 0.00 12 1010.5
20181017205527 87 45 9.0 16.0 0.00 0.00 0.00 12 1010.5
20181017205519 87 11 3.0 6.0 0.00 0.00 0.00 12 1010.4
20181017205438 86 83 9.0 13.0 0.00 0.00 0.00 12 1010.8
20181017205348 87 45 9.0 16.0 0.00 0.00 0.00 12 1010.5
20181017205256 87 45 9.0 16.0 0.00 0.00 0.00 12 1010.5
20181017205216 87 357 3.0 11.0 0.00 0.00 0.00 12 1010.4
20181017205201 86 83 9.0 13.0 0.00 0.00 0.00 12 1010.8
20181017205105 87 99 9.0 9.0 0.00 0.00 0.00 12 1010.5
20181017205003 85 76 4.0 6.0 0.00 0.00 0.00 13 1010.9
20181017204915 87 45 9.0 16.0 0.00 0.00 0.00 12 1010.5
20181017204857 87 99 9.0 9.0 0.00 0.00 0.00 12 1010.5
20181017204747 87 99 9.0 9.0 0.00 0.00 0.00 12 1010.5
20181017204634 87 99 9.0 9.0 0.00 0.00 0.00 12 1010.5
20181017204614 87 81 9.0 16.0 0.00 0.00 0.00 11 1010.5
20181017204517 87 99 9.0 9.0 0.00 0.00 0.00 12 1010.5
20181017204355 86 105 4.0 7.0 0.00 0.00 0.00 13 1010.8
20181017204315 87 78 10.0 12.0 0.00 0.00 0.00 12 1010.5
20181017204230 86 105 4.0 7.0 0.00 0.00 0.00 13 1010.8
20181017204101 85 324 6.0 11.0 0.00 0.00 0.00 12 1010.8
20181017204011 87 99 9.0 9.0 0.00 0.00 0.00 12 1010.5
20181017203929 86 105 4.0 7.0 0.00 0.00 0.00 13 1010.8
20181017203750 86 83 9.0 13.0 0.00 0.00 0.00 12 1010.8
20181017203606 85 76 4.0 6.0 0.00 0.00 0.00 13 1010.9
20181017203416 85 76 4.0 6.0 0.00 0.00 0.00 13 1010.9
20181017203411 86 105 4.0 7.0 0.00 0.00 0.00 13 1010.8
20181017203214 86 83 9.0 13.0 0.00 0.00 0.00 12 1010.8
20181017203005 85 76 4.0 6.0 0.00 0.00 0.00 13 1010.9
20181017202807 86 83 9.0 13.0 0.00 0.00 0.00 12 1010.8
20181017202752 85 76 4.0 6.0 0.00 0.00 0.00 13 1010.9
20181017202532 85 76 4.0 6.0 0.00 0.00 0.00 13 1010.9
20181017202304 85 324 6.0 11.0 0.00 0.00 0.00 12 1010.8
20181017202205 85 76 4.0 6.0 0.00 0.00 0.00 13 1010.9
20181017201904 85 324 6.0 11.0 0.00 0.00 0.00 12 1010.8
20181017201604 85 99 6.0 18.0 0.00 0.00 0.00 12 1010.9
20181017201303 86 90 9.0 14.0 0.00 0.00 0.00 12 1010.9
20181017201003 86 110 10.0 13.0 0.00 0.00 0.00 13 1010.9
20181017200659 86 81 7.0 13.0 0.00 0.00 0.00 13 1011.1
20181017200358 86 128 4.0 10.0 0.00 0.00 0.00 13 1011.2
20181017195758 86 94 7.0 15.0 0.00 0.00 0.00 12 1011.1
20181017195559 86 78 7.0 10.0 0.00 0.00 0.00 13 1011.2
20181017195455 86 78 7.0 10.0 0.00 0.00 0.00 13 1011.2
20181017194958 86 90 6.0 6.0 0.00 0.00 0.00 13 1011.5
20181017194853 86 90 6.0 6.0 0.00 0.00 0.00 13 1011.5
20181017194709 86 90 6.0 11.0 0.00 0.00 0.00 13 1011.5
20181017194552 86 90 6.0 11.0 0.00 0.00 0.00 13 1011.5
20181017194348 86 72 9.0 10.0 0.00 0.00 0.00 13 1011.6
20181017194251 86 72 9.0 10.0 0.00 0.00 0.00 13 1011.6
20181017194057 85 69 6.0 8.0 0.00 0.00 0.00 14 1011.7
20181017193949 85 69 6.0 8.0 0.00 0.00 0.00 14 1011.7
20181017193812 85 24 5.0 11.0 0.00 0.00 0.00 13 1011.7
20181017193650 85 24 5.0 11.0 0.00 0.00 0.00 13 1011.7
20181017193452 85 97 3.0 11.0 0.00 0.00 0.00 14 1011.8
20181017193347 85 97 3.0 11.0 0.00 0.00 0.00 14 1011.8
20181017193201 85 93 1.0 9.0 0.00 0.00 0.00 14 1011.7
20181017193048 85 93 1.0 9.0 0.00 0.00 0.00 14 1011.7
20181017192910 85 94 7.0 11.0 0.00 0.00 0.00 13 1011.9
20181017192745 85 94 7.0 11.0 0.00 0.00 0.00 13 1011.9
20181017192255 85 135 4.0 9.0 0.00 0.00 0.00 14 1012.0
20181017192143 85 135 4.0 9.0 0.00 0.00 0.00 14 1012.0
20181017191944 85 153 1.0 13.0 0.00 0.00 0.00 13 1012.0
20181017191842 85 153 1.0 13.0 0.00 0.00 0.00 13 1012.0
20181017191635 85 85 6.0 13.0 0.00 0.00 0.00 13 1012.1
20181017191542 85 85 6.0 13.0 0.00 0.00 0.00 13 1012.1
20181017191053 85 90 7.0 14.0 0.00 0.00 0.00 13 1012.2
20181017190938 85 90 7.0 14.0 0.00 0.00 0.00 13 1012.2
20181017190443 85 87 9.0 9.0 0.00 0.00 0.00 13 1012.0
20181017190336 85 87 9.0 9.0 0.00 0.00 0.00 13 1012.0
20181017190132 84 70 3.0 9.0 0.00 0.00 0.00 14 1012.3
20181017190035 84 70 3.0 9.0 0.00 0.00 0.00 14 1012.3
20181017185815 84 142 2.0 10.0 0.00 0.00 0.00 13 1012.3
20181017185734 84 142 2.0 10.0 0.00 0.00 0.00 13 1012.3
20181017185435 84 33 7.0 11.0 0.00 0.00 0.00 13 1012.4
20181017185229 84 323 2.0 11.0 0.00 0.00 0.00 13 1012.3
20181017185132 84 323 2.0 11.0 0.00 0.00 0.00 13 1012.3
20181017184943 84 47 11.0 11.0 0.00 0.00 0.00 13 1012.4
20181017184831 84 47 11.0 11.0 0.00 0.00 0.00 13 1012.4
20181017184533 84 83 4.0 11.0 0.00 0.00 0.00 14 1012.4
20181017184330 83 65 5.0 7.0 0.00 0.00 0.00 15 1012.6
20181017184229 83 65 5.0 7.0 0.00 0.00 0.00 15 1012.6
20181017184024 83 6 6.0 10.0 0.00 0.00 0.00 13 1012.6
20181017183927 83 6 6.0 10.0 0.00 0.00 0.00 13 1012.6
20181017183728 83 24 10.0 11.0 0.00 0.00 0.00 13 1012.5
20181017183626 83 24 10.0 11.0 0.00 0.00 0.00 13 1012.5
20181017183426 82 295 2.0 10.0 0.00 0.00 0.00 16 1012.4
20181017183325 82 295 2.0 10.0 0.00 0.00 0.00 16 1012.4
20181017182844 81 63 11.0 16.0 0.00 0.00 0.00 15 1012.3
20181017182723 81 63 11.0 16.0 0.00 0.00 0.00 15 1012.3
20181017182228 81 90 10.0 13.0 0.00 0.00 0.00 15 1012.3
20181017182121 81 90 10.0 13.0 0.00 0.00 0.00 15 1012.3
20181017182018 81 78 8.0 13.0 0.00 0.00 0.00 15 1012.4
20181017181820 81 78 8.0 13.0 0.00 0.00 0.00 15 1012.4
20181017181637 81 90 13.0 13.0 0.00 0.00 0.00 15 1012.4
20181017181520 81 90 13.0 13.0 0.00 0.00 0.00 15 1012.4
20181017181425 80 87 12.0 16.0 0.00 0.00 0.00 15 1012.5
20181017181346 80 74 13.0 15.0 0.00 0.00 0.00 16 1012.4
20181017181307 80 87 12.0 16.0 0.00 0.00 0.00 15 1012.5
20181017181236 80 90 13.0 13.0 0.00 0.00 0.00 16 1012.4
20181017181201 80 74 13.0 15.0 0.00 0.00 0.00 16 1012.4
20181017181123 80 87 12.0 16.0 0.00 0.00 0.00 15 1012.5
20181017181043 80 90 13.0 13.0 0.00 0.00 0.00 16 1012.4
20181017180958 80 74 13.0 15.0 0.00 0.00 0.00 16 1012.4
20181017180918 81 90 6.0 14.0 0.00 0.00 0.00 16 1012.5
20181017180912 80 90 13.0 13.0 0.00 0.00 0.00 16 1012.4
20181017180821 80 74 13.0 15.0 0.00 0.00 0.00 16 1012.4
20181017180728 80 87 12.0 16.0 0.00 0.00 0.00 15 1012.5
20181017180630 79 49 11.0 13.0 0.00 0.00 0.00 17 1012.6
20181017180615 80 87 12.0 16.0 0.00 0.00 0.00 15 1012.5
20181017180600 79 49 11.0 13.0 0.00 0.00 0.00 17 1012.6
20181017180528 79 83 12.0 14.0 0.00 0.00 0.00 16 1012.5
20181017180456 80 90 13.0 13.0 0.00 0.00 0.00 16 1012.4
20181017180424 80 74 13.0 15.0 0.00 0.00 0.00 16 1012.4
20181017180350 79 83 12.0 14.0 0.00 0.00 0.00 16 1012.5
20181017180315 80 74 13.0 15.0 0.00 0.00 0.00 16 1012.4
20181017180238 80 74 13.0 15.0 0.00 0.00 0.00 16 1012.4
20181017180159 80 74 13.0 15.0 0.00 0.00 0.00 16 1012.4
20181017180119 79 49 11.0 13.0 0.00 0.00 0.00 17 1012.6
20181017180038 80 74 13.0 15.0 0.00 0.00 0.00 16 1012.4
20181017180015 80 67 10.0 15.0 0.00 0.00 0.00 16 1012.5
20181017175954 80 74 13.0 15.0 0.00 0.00 0.00 16 1012.4
20181017175910 79 83 12.0 14.0 0.00 0.00 0.00 16 1012.5
20181017175823 79 49 11.0 13.0 0.00 0.00 0.00 17 1012.6
20181017175736 79 83 12.0 14.0 0.00 0.00 0.00 16 1012.5
20181017175714 80 74 13.0 15.0 0.00 0.00 0.00 16 1012.4
20181017175648 80 76 10.0 15.0 0.00 0.00 0.00 17 1012.7
20181017175556 79 83 12.0 14.0 0.00 0.00 0.00 16 1012.5
20181017175505 79 49 11.0 13.0 0.00 0.00 0.00 17 1012.6
20181017175410 79 83 12.0 14.0 0.00 0.00 0.00 16 1012.5
20181017175312 79 81 13.0 14.0 0.00 0.00 0.00 16 1012.6
20181017175214 79 83 12.0 14.0 0.00 0.00 0.00 16 1012.5
20181017175114 79 81 13.0 14.0 0.00 0.00 0.00 16 1012.6
20181017175011 79 83 12.0 14.0 0.00 0.00 0.00 16 1012.5
20181017174908 79 81 13.0 14.0 0.00 0.00 0.00 16 1012.6
20181017174803 79 49 11.0 13.0 0.00 0.00 0.00 17 1012.6
20181017174658 79 49 11.0 13.0 0.00 0.00 0.00 17 1012.6
20181017174551 79 49 11.0 13.0 0.00 0.00 0.00 17 1012.6
20181017174509 79 69 11.0 15.0 0.00 0.00 0.00 16 1012.6
20181017174441 79 49 11.0 13.0 0.00 0.00 0.00 17 1012.6
20181017174328 79 49 11.0 13.0 0.00 0.00 0.00 17 1012.6
20181017174213 79 83 12.0 14.0 0.00 0.00 0.00 16 1012.5
20181017174208 79 49 11.0 13.0 0.00 0.00 0.00 17 1012.6
20181017174056 79 83 12.0 14.0 0.00 0.00 0.00 16 1012.5
20181017173938 79 81 13.0 14.0 0.00 0.00 0.00 16 1012.6
20181017173905 79 83 12.0 14.0 0.00 0.00 0.00 16 1012.5
20181017173819 79 81 13.0 14.0 0.00 0.00 0.00 16 1012.6
20181017173658 80 76 10.0 15.0 0.00 0.00 0.00 17 1012.7
20181017173606 79 81 13.0 14.0 0.00 0.00 0.00 16 1012.6
20181017173535 80 76 10.0 15.0 0.00 0.00 0.00 17 1012.7
20181017173305 80 76 10.0 15.0 0.00 0.00 0.00 17 1012.7
20181017173004 80 74 12.0 14.0 0.00 0.00 0.00 16 1012.6
20181017172703 80 65 12.0 15.0 0.00 0.00 0.00 16 1012.8
20181017172402 80 63 11.0 15.0 0.00 0.00 0.00 16 1012.8
20181017172101 81 78 15.0 15.0 0.00 0.00 0.00 16 1012.7
20181017171759 81 33 9.0 15.0 0.00 0.00 0.00 17 1012.8
20181017171458 81 90 13.0 13.0 0.00 0.00 0.00 17 1012.8
20181017170556 80 33 5.0 12.0 0.00 0.00 0.00 17 1013.0
20181017170252 80 33 7.0 10.0 0.00 0.00 0.00 17 1012.9
20181017165647 79 38 8.0 13.0 0.00 0.00 0.00 18 1012.9
20181017165346 79 40 10.0 12.0 0.00 0.00 0.00 18 1012.9
20181017165045 79 31 12.0 13.0 0.00 0.00 0.00 18 1012.9
20181017164742 79 42 6.0 13.0 0.00 0.00 0.00 18 1012.9
20181017164441 78 42 5.0 14.0 0.00 0.00 0.00 18 1012.7
20181017164141 78 49 12.0 14.0 0.00 0.00 0.00 18 1012.8
20181017163538 78 38 10.0 13.0 0.00 0.00 0.00 18 1013.0
20181017163048 78 70 5.0 13.0 0.00 0.00 0.00 19 1013.0
20181017162935 78 70 5.0 13.0 0.00 0.00 0.00 19 1013.0
20181017162636 77 45 4.0 13.0 0.00 0.00 0.00 20 1012.9
20181017162440 77 78 10.0 10.0 0.00 0.00 0.00 20 1012.7
20181017162334 77 78 10.0 10.0 0.00 0.00 0.00 20 1012.7
20181017162159 77 74 7.0 9.0 0.00 0.00 0.00 20 1012.7
20181017162032 77 74 7.0 9.0 0.00 0.00 0.00 20 1012.7
20181017161732 76 65 7.0 11.0 0.00 0.00 0.00 20 1012.9
20181017161236 75 78 8.0 13.0 0.00 0.00 0.00 20 1012.8
20181017161128 75 78 8.0 13.0 0.00 0.00 0.00 20 1012.8
20181017160946 75 80 4.0 11.0 0.00 0.00 0.00 20 1013.0
20181017160827 75 80 4.0 11.0 0.00 0.00 0.00 20 1013.0
20181017160621 75 87 10.0 11.0 0.00 0.00 0.00 20 1012.8
20181017160528 75 87 10.0 11.0 0.00 0.00 0.00 20 1012.8
20181017155924 74 49 5.0 10.0 0.00 0.00 0.00 21 1012.9
20181017155427 73 65 7.0 11.0 0.00 0.00 0.00 22 1012.9
20181017155322 73 65 7.0 11.0 0.00 0.00 0.00 22 1012.9
20181017155117 72 85 5.0 13.0 0.00 0.00 0.00 22 1012.7
20181017155022 72 85 5.0 13.0 0.00 0.00 0.00 22 1012.7
20181017154508 71 74 9.0 16.0 0.00 0.00 0.00 22 1012.5
20181017154420 71 74 9.0 16.0 0.00 0.00 0.00 22 1012.5
20181017154214 70 85 15.0 16.0 0.00 0.00 0.00 22 1012.6
20181017154119 70 85 15.0 16.0 0.00 0.00 0.00 22 1012.6
20181017153818 69 74 13.0 16.0 0.00 0.00 0.00 24 1012.7
20181017153617 68 65 11.0 11.0 0.00 0.00 0.00 27 1012.6
20181017153515 68 65 11.0 11.0 0.00 0.00 0.00 27 1012.6
20181017153303 67 72 7.0 12.0 0.00 0.00 0.00 27 1012.5
20181017153214 67 72 7.0 12.0 0.00 0.00 0.00 27 1012.5
20181017153018 66 83 12.0 12.0 0.00 0.00 0.00 28 1012.6
20181017152913 66 83 12.0 12.0 0.00 0.00 0.00 28 1012.6
20181017152614 64 90 7.0 8.0 0.00 0.00 0.00 30 1012.5
20181017152431 63 108 4.0 8.0 0.00 0.00 0.00 32 1012.6
20181017152311 63 108 4.0 8.0 0.00 0.00 0.00 32 1012.6
20181017152128 62 87 5.0 6.0 0.00 0.00 0.00 33 1012.5
20181017152010 62 87 5.0 6.0 0.00 0.00 0.00 33 1012.5
20181017151820 61 90 5.0 7.0 0.00 0.00 0.00 34 1012.4
20181017151709 61 90 5.0 7.0 0.00 0.00 0.00 34 1012.4
20181017151412 60 74 5.0 7.0 0.00 0.00 0.00 34 1012.5
20181017151231 60 101 3.0 4.0 0.00 0.00 0.00 35 1012.4
20181017151108 60 101 3.0 4.0 0.00 0.00 0.00 35 1012.4
20181017150912 59 99 3.0 5.0 0.00 0.00 0.00 35 1012.5
20181017150807 59 99 3.0 5.0 0.00 0.00 0.00 35 1012.5
20181017150205 58 90 3.0 3.0 0.00 0.00 0.00 35 1012.4
20181017145904 58 90 2.0 5.0 0.00 0.00 0.00 36 1012.4
20181017145742 56 135 1.0 4.0 0.00 0.00 0.00 37 1012.1
20181017145736 52 135 2.0 3.0 0.00 0.00 0.00 38 1011.9
20181017145734 57 94 3.0 5.0 0.00 0.00 0.00 36 1012.3
20181017145710 56 135 1.0 4.0 0.00 0.00 0.00 37 1012.1
20181017145704 53 90 0.0 3.0 0.00 0.00 0.00 38 1012.1
20181017145702 57 94 3.0 5.0 0.00 0.00 0.00 36 1012.3
20181017145637 56 135 1.0 4.0 0.00 0.00 0.00 37 1012.1
20181017145606 56 135 1.0 4.0 0.00 0.00 0.00 37 1012.1
20181017145602 54 101 3.0 4.0 0.00 0.00 0.00 38 1012.3
20181017145534 56 135 1.0 4.0 0.00 0.00 0.00 37 1012.1
20181017145528 54 101 3.0 4.0 0.00 0.00 0.00 38 1012.3
20181017145453 54 101 3.0 4.0 0.00 0.00 0.00 38 1012.3
20181017145422 52 96 2.0 3.0 0.00 0.00 0.00 38 1011.9
20181017145400 56 135 1.0 4.0 0.00 0.00 0.00 37 1012.1
20181017145352 53 101 1.0 3.0 0.00 0.00 0.00 39 1012.0
20181017145325 56 135 1.0 4.0 0.00 0.00 0.00 37 1012.1
20181017145314 54 101 3.0 4.0 0.00 0.00 0.00 38 1012.3
20181017145249 56 135 1.0 4.0 0.00 0.00 0.00 37 1012.1
20181017145236 53 90 0.0 3.0 0.00 0.00 0.00 38 1012.1
20181017145211 56 135 1.0 4.0 0.00 0.00 0.00 37 1012.1
20181017145158 51 105 2.0 3.0 0.00 0.00 0.00 37 1011.9
20181017145119 51 105 2.0 3.0 0.00 0.00 0.00 37 1011.9
20181017145104 56 135 1.0 4.0 0.00 0.00 0.00 37 1012.1
20181017145048 54 101 3.0 4.0 0.00 0.00 0.00 38 1012.3
20181017145032 56 135 1.0 4.0 0.00 0.00 0.00 37 1012.1
20181017145014 54 101 3.0 4.0 0.00 0.00 0.00 38 1012.3
20181017145001 56 117 2.0 3.0 0.00 0.00 0.00 37 1012.3
20181017144957 56 135 1.0 4.0 0.00 0.00 0.00 37 1012.1
20181017144940 54 101 3.0 4.0 0.00 0.00 0.00 38 1012.3
20181017144922 56 135 1.0 4.0 0.00 0.00 0.00 37 1012.1
20181017144905 54 101 3.0 4.0 0.00 0.00 0.00 38 1012.3
20181017144847 56 135 1.0 4.0 0.00 0.00 0.00 37 1012.1
20181017144828 53 101 1.0 3.0 0.00 0.00 0.00 39 1012.0
20181017144750 54 101 3.0 4.0 0.00 0.00 0.00 38 1012.3
20181017144709 54 101 3.0 4.0 0.00 0.00 0.00 38 1012.3
20181017144657 56 135 1.0 4.0 0.00 0.00 0.00 37 1012.1
20181017144624 52 135 2.0 3.0 0.00 0.00 0.00 38 1011.9
20181017144539 54 101 3.0 4.0 0.00 0.00 0.00 38 1012.3
20181017144450 54 101 3.0 4.0 0.00 0.00 0.00 38 1012.3
20181017144359 54 101 3.0 4.0 0.00 0.00 0.00 38 1012.3
20181017144305 54 101 3.0 4.0 0.00 0.00 0.00 38 1012.3
20181017144209 54 101 3.0 4.0 0.00 0.00 0.00 38 1012.3
20181017144138 53 90 0.0 3.0 0.00 0.00 0.00 38 1012.1
20181017144106 53 101 1.0 3.0 0.00 0.00 0.00 39 1012.0
20181017144057 54 101 3.0 4.0 0.00 0.00 0.00 38 1012.3
20181017144034 52 135 2.0 3.0 0.00 0.00 0.00 38 1011.9
20181017144002 53 90 0.0 3.0 0.00 0.00 0.00 38 1012.1
20181017143930 53 90 0.0 3.0 0.00 0.00 0.00 38 1012.1
20181017143854 52 135 2.0 3.0 0.00 0.00 0.00 38 1011.9
20181017143819 52 135 2.0 3.0 0.00 0.00 0.00 38 1011.9
20181017143754 53 87 2.0 3.0 0.00 0.00 0.00 38 1012.1
20181017143744 53 90 0.0 3.0 0.00 0.00 0.00 38 1012.1
20181017143705 53 101 1.0 3.0 0.00 0.00 0.00 39 1012.0
20181017143625 53 101 1.0 3.0 0.00 0.00 0.00 39 1012.0
20181017143544 53 101 1.0 3.0 0.00 0.00 0.00 39 1012.0
20181017143503 52 135 2.0 3.0 0.00 0.00 0.00 38 1011.9
20181017143455 53 90 0.0 3.0 0.00 0.00 0.00 38 1012.1
20181017143419 53 101 1.0 3.0 0.00 0.00 0.00 39 1012.0
20181017143336 52 135 2.0 4.0 0.00 0.00 0.00 38 1011.8
20181017143251 53 101 1.0 3.0 0.00 0.00 0.00 39 1012.0
20181017143204 51 105 2.0 3.0 0.00 0.00 0.00 37 1011.9
20181017143152 53 101 1.0 3.0 0.00 0.00 0.00 39 1012.0
20181017143117 52 135 2.0 4.0 0.00 0.00 0.00 38 1011.8
20181017143029 52 135 2.0 3.0 0.00 0.00 0.00 38 1011.9
20181017142939 52 96 2.0 3.0 0.00 0.00 0.00 38 1011.9
20181017142852 52 135 2.0 3.0 0.00 0.00 0.00 38 1011.9
20181017142847 52 135 2.0 4.0 0.00 0.00 0.00 38 1011.8
20181017142755 52 135 2.0 4.0 0.00 0.00 0.00 38 1011.8
20181017142704 51 105 2.0 3.0 0.00 0.00 0.00 37 1011.9
20181017142611 52 135 2.0 4.0 0.00 0.00 0.00 38 1011.8
20181017142551 52 99 2.0 3.0 0.00 0.00 0.00 37 1011.8
20181017142516 52 135 2.0 4.0 0.00 0.00 0.00 38 1011.8
20181017142421 51 105 2.0 3.0 0.00 0.00 0.00 37 1011.9
20181017142325 52 96 2.0 3.0 0.00 0.00 0.00 38 1011.9
20181017142249 52 135 2.0 4.0 0.00 0.00 0.00 38 1011.8
20181017142226 51 105 2.0 3.0 0.00 0.00 0.00 37 1011.9
20181017142127 51 105 2.0 3.0 0.00 0.00 0.00 37 1011.9
20181017142025 51 105 2.0 3.0 0.00 0.00 0.00 37 1011.9
20181017141947 52 96 2.0 3.0 0.00 0.00 0.00 38 1011.9
20181017141924 51 105 2.0 3.0 0.00 0.00 0.00 37 1011.9
20181017141821 51 105 2.0 3.0 0.00 0.00 0.00 37 1011.9
20181017141646 51 105 2.0 3.0 0.00 0.00 0.00 37 1011.9
20181017141345 51 96 2.0 3.0 0.00 0.00 0.00 36 1011.8
20181017141044 51 175 1.0 2.0 0.00 0.00 0.00 35 1011.7
20181017140745 51 90 1.0 2.0 0.00 0.00 0.00 35 1011.6
20181017140141 51 137 1.0 3.0 0.00 0.00 0.00 35 1011.6
20181017135842 51 292 1.0 3.0 0.00 0.00 0.00 36 1011.7
20181017135539 51 310 1.0 2.0 0.00 0.00 0.00 36 1011.6
20181017135241 51 180 0.0 3.0 0.00 0.00 0.00 37 1011.6
20181017134936 51 162 1.0 3.0 0.00 0.00 0.00 35 1011.6
20181017134638 51 148 1.0 2.0 0.00 0.00 0.00 35 1011.5
20181017134334 51 180 1.0 2.0 0.00 0.00 0.00 35 1011.5
20181017134035 51 225 0.0 2.0 0.00 0.00 0.00 35 1011.5
20181017133433 51 180 1.0 2.0 0.00 0.00 0.00 35 1011.4
20181017133130 51 225 0.0 1.0 0.00 0.00 0.00 35 1011.3
20181017132831 51 45 0.0 2.0 0.00 0.00 0.00 35 1011.3
20181017132529 51 180 1.0 1.0 0.00 0.00 0.00 36 1011.2
20181017131925 51 225 0.0 1.0 0.00 0.00 0.00 37 1011.3
20181017131626 51 225 0.0 3.0 0.00 0.00 0.00 36 1011.3
20181017131325 51 157 1.0 3.0 0.00 0.00 0.00 37 1011.3
20181017131022 51 121 3.0 3.0 0.00 0.00 0.00 36 1011.3
20181017130723 51 180 2.0 2.0 0.00 0.00 0.00 35 1011.2
20181017130420 52 135 0.0 1.0 0.00 0.00 0.00 35 1011.3
20181017130119 52 45 1.0 2.0 0.00 0.00 0.00 35 1011.1
20181017125518 52 177 0.0 3.0 0.00 0.00 0.00 35 1011.1
20181017124914 53 90 1.0 2.0 0.00 0.00 0.00 35 1011.2
20181017124613 53 90 2.0 2.0 0.00 0.00 0.00 34 1011.2
20181017124312 53 90 0.0 2.0 0.00 0.00 0.00 34 1011.3
20181017124011 53 0 1.0 2.0 0.00 0.00 0.00 34 1011.1
20181017123710 53 0 0.0 1.0 0.00 0.00 0.00 34 1011.2
20181017123411 54 0 1.0 1.0 0.00 0.00 0.00 34 1011.2
20181017123108 54 0 1.0 4.0 0.00 0.00 0.00 34 1011.2
20181017122850 54 324 2.0 4.0 0.00 0.00 0.00 34 1011.1
20181017122807 54 324 2.0 4.0 0.00 0.00 0.00 34 1011.1
20181017122205 54 0 0.0 2.0 0.00 0.00 0.00 34 1011.0
20181017121903 54 45 1.0 1.0 0.00 0.00 0.00 34 1011.0
20181017121301 54 135 1.0 2.0 0.00 0.00 0.00 34 1010.9
20181017121113 54 353 2.0 2.0 0.00 0.00 0.00 34 1010.9
20181017121000 54 353 2.0 2.0 0.00 0.00 0.00 34 1010.9
20181017120701 54 198 0.0 4.0 0.00 0.00 0.00 34 1010.9
20181017120400 54 189 2.0 2.0 0.00 0.00 0.00 34 1010.9
20181017120057 54 180 1.0 3.0 0.00 0.00 0.00 34 1010.9
20181017115758 54 135 1.0 3.0 0.00 0.00 0.00 34 1010.7
20181017115454 54 200 1.0 3.0 0.00 0.00 0.00 34 1010.7
20181017115153 54 135 0.0 3.0 0.00 0.00 0.00 34 1010.7
20181017114854 54 108 2.0 2.0 0.00 0.00 0.00 34 1010.7
20181017114551 54 0 2.0 2.0 0.00 0.00 0.00 34 1010.7
20181017114250 54 0 0.0 1.0 0.00 0.00 0.00 34 1010.7
20181017113648 54 0 1.0 2.0 0.00 0.00 0.00 34 1010.8
20181017113431 55 0 1.0 1.0 0.00 0.00 0.00 35 1010.6
20181017113347 55 0 1.0 1.0 0.00 0.00 0.00 35 1010.6
20181017113118 55 45 1.0 2.0 0.00 0.00 0.00 35 1010.6
20181017113046 55 45 1.0 2.0 0.00 0.00 0.00 35 1010.6
20181017112744 55 90 1.0 3.0 0.00 0.00 0.00 35 1010.7
20181017112443 55 94 3.0 4.0 0.00 0.00 0.00 35 1010.8
20181017112142 55 94 3.0 4.0 0.00 0.00 0.00 35 1010.7
20181017111943 55 90 4.0 5.0 0.00 0.00 0.00 35 1010.6
20181017111841 55 90 4.0 5.0 0.00 0.00 0.00 35 1010.6
20181017111627 55 90 5.0 5.0 0.00 0.00 0.00 36 1010.6
20181017111540 55 90 5.0 5.0 0.00 0.00 0.00 36 1010.6
20181017111241 55 90 4.0 5.0 0.00 0.00 0.00 36 1010.6
20181017111021 55 99 2.0 6.0 0.00 0.00 0.00 36 1010.5
20181017110938 55 99 2.0 6.0 0.00 0.00 0.00 36 1010.5
20181017110717 55 119 3.0 6.0 0.00 0.00 0.00 36 1010.5
20181017110637 55 119 3.0 6.0 0.00 0.00 0.00 36 1010.5
20181017110421 55 117 3.0 5.0 0.00 0.00 0.00 35 1010.5
20181017110336 55 117 3.0 5.0 0.00 0.00 0.00 35 1010.5
20181017110117 55 123 3.0 5.0 0.00 0.00 0.00 35 1010.5
20181017110036 55 123 3.0 5.0 0.00 0.00 0.00 35 1010.5
20181017105819 55 94 3.0 6.0 0.00 0.00 0.00 35 1010.4
20181017105733 55 94 3.0 6.0 0.00 0.00 0.00 35 1010.4
20181017105512 55 92 4.0 5.0 0.00 0.00 0.00 35 1010.4
20181017105432 55 92 4.0 5.0 0.00 0.00 0.00 35 1010.4
20181017105202 55 114 3.0 7.0 0.00 0.00 0.00 35 1010.4
20181017105131 55 114 3.0 7.0 0.00 0.00 0.00 35 1010.4
20181017104830 55 103 4.0 8.0 0.00 0.00 0.00 35 1010.3
20181017104634 55 90 7.0 8.0 0.00 0.00 0.00 36 1010.3
20181017104529 55 90 7.0 8.0 0.00 0.00 0.00 36 1010.3
20181017104007 55 90 4.0 7.0 0.00 0.00 0.00 37 1010.3
20181017103928 55 90 4.0 7.0 0.00 0.00 0.00 37 1010.3
20181017103626 56 105 5.0 6.0 0.00 0.00 0.00 36 1010.3
20181017103357 56 101 4.0 6.0 0.00 0.00 0.00 35 1010.4
20181017103326 56 101 4.0 6.0 0.00 0.00 0.00 35 1010.4
20181017103025 56 99 4.0 6.0 0.00 0.00 0.00 35 1010.5
20181017102824 56 90 5.0 5.0 0.00 0.00 0.00 35 1010.5
20181017102722 56 90 5.0 5.0 0.00 0.00 0.00 35 1010.5
20181017102506 56 126 2.0 4.0 0.00 0.00 0.00 35 1010.5
20181017102421 56 126 2.0 4.0 0.00 0.00 0.00 35 1010.5
20181017102158 56 90 3.0 4.0 0.00 0.00 0.00 35 1010.5
20181017102120 56 90 3.0 4.0 0.00 0.00 0.00 35 1010.5
20181017101907 55 83 3.0 4.0 0.00 0.00 0.00 35 1010.5
20181017101820 55 83 3.0 4.0 0.00 0.00 0.00 35 1010.5
20181017101601 55 90 4.0 5.0 0.00 0.00 0.00 36 1010.6
20181017101518 55 90 4.0 5.0 0.00 0.00 0.00 36 1010.6
20181017100917 55 90 3.0 6.0 0.00 0.00 0.00 36 1010.6
20181017100708 55 90 6.0 6.0 0.00 0.00 0.00 36 1010.5
20181017100615 55 90 6.0 6.0 0.00 0.00 0.00 36 1010.5
20181017100349 55 96 2.0 5.0 0.00 0.00 0.00 36 1010.6
20181017100315 55 96 2.0 5.0 0.00 0.00 0.00 36 1010.6
20181017100050 55 76 4.0 5.0 0.00 0.00 0.00 35 1010.6
20181017100012 55 76 4.0 5.0 0.00 0.00 0.00 35 1010.6
20181017095711 55 94 4.0 4.0 0.00 0.00 0.00 35 1010.7
20181017095507 55 45 2.0 4.0 0.00 0.00 0.00 36 1010.7
20181017095410 55 45 2.0 4.0 0.00 0.00 0.00 36 1010.7
20181017095156 55 45 4.0 4.0 0.00 0.00 0.00 36 1010.8
20181017095109 55 45 4.0 4.0 0.00 0.00 0.00 36 1010.8
20181017094808 55 225 1.0 2.0 0.00 0.00 0.00 37 1010.7
20181017094542 55 135 1.0 3.0 0.00 0.00 0.00 37 1010.8
20181017094507 55 135 1.0 3.0 0.00 0.00 0.00 37 1010.8
20181017094206 55 74 3.0 3.0 0.00 0.00 0.00 37 1010.8
20181017093905 55 90 2.0 3.0 0.00 0.00 0.00 37 1010.9
20181017093050 55 81 2.0 2.0 0.00 0.00 0.00 40 1010.7
20181017093003 55 81 2.0 2.0 0.00 0.00 0.00 40 1010.7
20181017092702 55 112 1.0 3.0 0.00 0.00 0.00 40 1011.0
20181017092359 55 132 3.0 3.0 0.00 0.00 0.00 40 1011.1
20181017092217 55 123 2.0 3.0 0.00 0.00 0.00 40 1011.0
20181017092058 55 123 2.0 3.0 0.00 0.00 0.00 40 1011.0
20181017091841 54 135 1.0 3.0 0.00 0.00 0.00 40 1011.1
20181017091759 54 135 1.0 3.0 0.00 0.00 0.00 40 1011.1
20181017091600 54 128 1.0 2.0 0.00 0.00 0.00 41 1011.1
20181017091456 54 128 1.0 2.0 0.00 0.00 0.00 41 1011.1
20181017090633 53 101 3.0 3.0 0.00 0.00 0.00 42 1011.0
20181017090552 53 101 3.0 3.0 0.00 0.00 0.00 42 1011.0
20181017090335 53 135 2.0 2.0 0.00 0.00 0.00 42 1011.2
20181017090251 53 135 2.0 2.0 0.00 0.00 0.00 42 1011.2
20181017085950 53 123 1.0 3.0 0.00 0.00 0.00 43 1011.1
20181017085819 53 114 2.0 5.0 0.00 0.00 0.00 43 1011.1
20181017085649 53 114 2.0 5.0 0.00 0.00 0.00 43 1011.1
20181017085426 53 132 4.0 4.0 0.00 0.00 0.00 43 1011.0
20181017085348 53 132 4.0 4.0 0.00 0.00 0.00 43 1011.0
20181017085126 53 121 3.0 5.0 0.00 0.00 0.00 44 1011.2
20181017085047 53 121 3.0 5.0 0.00 0.00 0.00 44 1011.2
20181017084839 53 94 3.0 4.0 0.00 0.00 0.00 44 1011.0
20181017084746 53 94 3.0 4.0 0.00 0.00 0.00 44 1011.0
20181017084547 54 117 2.0 5.0 0.00 0.00 0.00 44 1011.1
20181017084446 54 117 2.0 5.0 0.00 0.00 0.00 44 1011.1
20181017084225 54 128 5.0 7.0 0.00 0.00 0.00 43 1011.0
20181017084144 54 128 5.0 7.0 0.00 0.00 0.00 43 1011.0
20181017083919 54 90 7.0 7.0 0.00 0.00 0.00 43 1011.1
20181017083842 54 90 7.0 7.0 0.00 0.00 0.00 43 1011.1
20181017083637 54 157 1.0 2.0 0.00 0.00 0.00 43 1011.1
20181017083541 54 157 1.0 2.0 0.00 0.00 0.00 43 1011.1
20181017083316 54 135 2.0 3.0 0.00 0.00 0.00 43 1011.0
20181017083240 54 135 2.0 3.0 0.00 0.00 0.00 43 1011.0
20181017082940 55 135 1.0 4.0 0.00 0.00 0.00 43 1011.1
20181017082721 55 148 1.0 5.0 0.00 0.00 0.00 42 1010.9
20181017082639 55 148 1.0 5.0 0.00 0.00 0.00 42 1010.9
20181017082339 55 114 4.0 4.0 0.00 0.00 0.00 42 1010.9
20181017082134 55 119 3.0 3.0 0.00 0.00 0.00 42 1010.9
20181017082036 55 119 3.0 3.0 0.00 0.00 0.00 42 1010.9
20181017081829 55 130 2.0 3.0 0.00 0.00 0.00 42 1010.9
20181017081737 55 130 2.0 3.0 0.00 0.00 0.00 42 1010.9
20181017081528 55 105 2.0 3.0 0.00 0.00 0.00 42 1010.9
20181017081434 55 105 2.0 3.0 0.00 0.00 0.00 42 1010.9
20181017081208 55 90 2.0 6.0 0.00 0.00 0.00 42 1010.9
20181017081132 55 90 2.0 6.0 0.00 0.00 0.00 42 1010.9
20181017080914 55 90 4.0 6.0 0.00 0.00 0.00 42 1010.9
20181017080831 55 90 4.0 6.0 0.00 0.00 0.00 42 1010.9
20181017080616 55 72 5.0 7.0 0.00 0.00 0.00 42 1011.0
20181017080530 55 72 5.0 7.0 0.00 0.00 0.00 42 1011.0
20181017080318 55 76 5.0 7.0 0.00 0.00 0.00 43 1010.9
20181017080229 55 76 5.0 7.0 0.00 0.00 0.00 43 1010.9
20181017080000 55 60 6.0 7.0 0.00 0.00 0.00 43 1010.9
20181017075928 55 60 6.0 7.0 0.00 0.00 0.00 43 1010.9
20181017075708 55 72 6.0 7.0 0.00 0.00 0.00 43 1010.9
20181017075629 55 72 6.0 7.0 0.00 0.00 0.00 43 1010.9
20181017075327 55 72 4.0 7.0 0.00 0.00 0.00 43 1010.9
20181017074724 55 103 5.0 6.0 0.00 0.00 0.00 43 1010.9
20181017074519 55 90 3.0 6.0 0.00 0.00 0.00 43 1011.0
20181017074424 55 90 3.0 6.0 0.00 0.00 0.00 43 1011.0
20181017074121 55 85 5.0 5.0 0.00 0.00 0.00 43 1010.9
20181017073907 55 90 3.0 5.0 0.00 0.00 0.00 43 1011.0
20181017073823 55 90 3.0 5.0 0.00 0.00 0.00 43 1011.0
20181017073521 55 103 3.0 6.0 0.00 0.00 0.00 44 1011.0
20181017072950 55 87 5.0 5.0 0.00 0.00 0.00 43 1011.0
20181017072917 55 87 5.0 5.0 0.00 0.00 0.00 43 1011.0
20181017072703 56 85 3.0 5.0 0.00 0.00 0.00 43 1011.1
20181017072616 56 85 3.0 5.0 0.00 0.00 0.00 43 1011.1
20181017072315 56 78 5.0 7.0 0.00 0.00 0.00 44 1010.9
20181017072101 56 90 5.0 7.0 0.00 0.00 0.00 44 1011.0
20181017072014 56 90 5.0 7.0 0.00 0.00 0.00 44 1011.0
20181017071713 56 101 6.0 6.0 0.00 0.00 0.00 44 1011.0
20181017071146 55 94 3.0 7.0 0.00 0.00 0.00 44 1011.0
20181017071112 55 94 3.0 7.0 0.00 0.00 0.00 44 1011.0
20181017070845 55 90 6.0 8.0 0.00 0.00 0.00 44 1011.1
20181017070811 55 90 6.0 8.0 0.00 0.00 0.00 44 1011.1
20181017070548 55 78 5.0 8.0 0.00 0.00 0.00 45 1011.0
20181017070510 55 78 5.0 8.0 0.00 0.00 0.00 45 1011.0
20181017070209 55 85 8.0 10.0 0.00 0.00 0.00 45 1011.2
20181017065956 54 85 6.0 9.0 0.00 0.00 0.00 45 1011.2
20181017065908 54 85 6.0 9.0 0.00 0.00 0.00 45 1011.2
20181017065642 54 90 7.0 8.0 0.00 0.00 0.00 44 1011.1
20181017065608 54 90 7.0 8.0 0.00 0.00 0.00 44 1011.1
20181017065306 54 90 6.0 6.0 0.00 0.00 0.00 43 1011.1
20181017065051 54 101 3.0 5.0 0.00 0.00 0.00 43 1011.2
20181017065006 54 101 3.0 5.0 0.00 0.00 0.00 43 1011.2
20181017064748 54 96 2.0 3.0 0.00 0.00 0.00 42 1011.1
20181017064702 54 96 2.0 3.0 0.00 0.00 0.00 42 1011.1
20181017064505 54 135 2.0 2.0 0.00 0.00 0.00 42 1011.2
20181017064402 54 135 2.0 2.0 0.00 0.00 0.00 42 1011.2
20181017064154 55 108 2.0 3.0 0.00 0.00 0.00 42 1011.2
20181017064101 55 108 2.0 3.0 0.00 0.00 0.00 42 1011.2
20181017063902 55 137 1.0 2.0 0.00 0.00 0.00 42 1011.2
20181017063758 55 137 1.0 2.0 0.00 0.00 0.00 42 1011.2
20181017063534 55 126 1.0 4.0 0.00 0.00 0.00 42 1011.1
20181017063457 55 126 1.0 4.0 0.00 0.00 0.00 42 1011.1
20181017063231 55 99 2.0 4.0 0.00 0.00 0.00 42 1011.2
20181017063156 55 99 2.0 4.0 0.00 0.00 0.00 42 1011.2
20181017062933 55 96 3.0 4.0 0.00 0.00 0.00 42 1011.2
20181017062855 55 96 3.0 4.0 0.00 0.00 0.00 42 1011.2
20181017062253 56 117 2.0 3.0 0.00 0.00 0.00 42 1011.2
20181017062028 56 90 2.0 5.0 0.00 0.00 0.00 42 1011.0
20181017061952 56 90 2.0 5.0 0.00 0.00 0.00 42 1011.0
20181017061731 56 96 4.0 6.0 0.00 0.00 0.00 42 1011.2
20181017061650 56 96 4.0 6.0 0.00 0.00 0.00 42 1011.2
20181017061349 56 92 4.0 6.0 0.00 0.00 0.00 42 1011.2
20181017061129 56 78 4.0 4.0 0.00 0.00 0.00 42 1011.2
20181017061048 56 78 4.0 4.0 0.00 0.00 0.00 42 1011.2
20181017060519 57 92 4.0 5.0 0.00 0.00 0.00 41 1011.2
20181017060446 57 92 4.0 5.0 0.00 0.00 0.00 41 1011.2
20181017060147 57 85 3.0 4.0 0.00 0.00 0.00 41 1011.3
20181017055916 57 67 1.0 4.0 0.00 0.00 0.00 41 1011.3
20181017055844 57 67 1.0 4.0 0.00 0.00 0.00 41 1011.3
20181017055544 57 92 2.0 6.0 0.00 0.00 0.00 40 1011.2
20181017055321 57 87 3.0 5.0 0.00 0.00 0.00 41 1011.4
20181017055242 57 87 3.0 5.0 0.00 0.00 0.00 41 1011.4
20181017054941 57 92 3.0 4.0 0.00 0.00 0.00 40 1011.3
20181017054743 57 78 2.0 5.0 0.00 0.00 0.00 41 1011.5
20181017054641 57 78 2.0 5.0 0.00 0.00 0.00 41 1011.5
20181017054338 57 90 5.0 5.0 0.00 0.00 0.00 41 1011.5
20181017054037 57 90 4.0 7.0 0.00 0.00 0.00 41 1011.5
20181017053832 58 90 6.0 7.0 0.00 0.00 0.00 41 1011.5
20181017053736 58 90 6.0 7.0 0.00 0.00 0.00 41 1011.5
20181017052833 58 94 5.0 7.0 0.00 0.00 0.00 41 1011.3
20181017052534 58 121 3.0 5.0 0.00 0.00 0.00 40 1011.4
20181017052231 58 101 3.0 3.0 0.00 0.00 0.00 40 1011.3
20181017051930 58 90 3.0 4.0 0.00 0.00 0.00 40 1011.3
20181017051628 58 78 3.0 5.0 0.00 0.00 0.00 40 1011.3
20181017051327 58 87 4.0 6.0 0.00 0.00 0.00 40 1011.3
20181017051026 59 85 4.0 6.0 0.00 0.00 0.00 40 1011.3
20181017050807 59 90 6.0 6.0 0.00 0.00 0.00 40 1011.3
20181017050725 59 90 6.0 6.0 0.00 0.00 0.00 40 1011.3
20181017050516 59 90 5.0 6.0 0.00 0.00 0.00 40 1011.3
20181017050424 59 90 5.0 6.0 0.00 0.00 0.00 40 1011.3
20181017050157 59 85 4.0 5.0 0.00 0.00 0.00 40 1011.3
20181017050125 59 85 4.0 5.0 0.00 0.00 0.00 40 1011.3
20181017045902 59 87 3.0 5.0 0.00 0.00 0.00 40 1011.2
20181017045822 59 87 3.0 5.0 0.00 0.00 0.00 40 1011.2
20181017045603 59 90 5.0 5.0 0.00 0.00 0.00 40 1011.2
20181017045521 59 90 5.0 5.0 0.00 0.00 0.00 40 1011.2
20181017045219 59 87 3.0 4.0 0.00 0.00 0.00 40 1011.3
20181017044920 59 90 4.0 5.0 0.00 0.00 0.00 40 1011.2
20181017044617 59 90 4.0 5.0 0.00 0.00 0.00 40 1011.1
20181017044352 59 90 3.0 4.0 0.00 0.00 0.00 40 1011.1
20181017044318 59 90 3.0 4.0 0.00 0.00 0.00 40 1011.1
20181017044052 59 90 3.0 4.0 0.00 0.00 0.00 41 1011.1
20181017044015 59 90 3.0 4.0 0.00 0.00 0.00 41 1011.1
20181017043716 59 90 2.0 3.0 0.00 0.00 0.00 40 1011.1
20181017043413 59 90 2.0 3.0 0.00 0.00 0.00 41 1011.0
20181017043144 59 137 1.0 3.0 0.00 0.00 0.00 41 1011.1
20181017043112 59 137 1.0 3.0 0.00 0.00 0.00 41 1011.1
20181017042813 59 90 2.0 4.0 0.00 0.00 0.00 41 1011.1
20181017042510 59 51 3.0 3.0 0.00 0.00 0.00 41 1011.1
20181017042210 59 58 3.0 6.0 0.00 0.00 0.00 40 1011.0
20181017042008 59 83 4.0 4.0 0.00 0.00 0.00 41 1011.1
20181017041909 59 83 4.0 4.0 0.00 0.00 0.00 41 1011.1
20181017041608 58 90 2.0 5.0 0.00 0.00 0.00 41 1011.1
20181017041042 58 90 4.0 5.0 0.00 0.00 0.00 42 1011.0
20181017041004 58 90 4.0 5.0 0.00 0.00 0.00 42 1011.0
20181017040736 58 94 3.0 4.0 0.00 0.00 0.00 43 1011.1
20181017040703 58 94 3.0 4.0 0.00 0.00 0.00 43 1011.1
20181017040405 58 90 3.0 3.0 0.00 0.00 0.00 43 1011.1
20181017040101 58 90 3.0 3.0 0.00 0.00 0.00 42 1010.9
20181017035834 58 67 1.0 2.0 0.00 0.00 0.00 42 1011.0
20181017035800 58 67 1.0 2.0 0.00 0.00 0.00 42 1011.0
20181017035459 58 225 0.0 2.0 0.00 0.00 0.00 42 1011.0
20181017035157 59 135 1.0 2.0 0.00 0.00 0.00 42 1010.9
20181017034856 59 90 2.0 3.0 0.00 0.00 0.00 42 1010.9
20181017034634 59 173 1.0 2.0 0.00 0.00 0.00 42 1010.9
20181017034555 59 173 1.0 2.0 0.00 0.00 0.00 42 1010.9
20181017034256 59 225 1.0 1.0 0.00 0.00 0.00 42 1010.9
20181017033739 60 270 2.0 2.0 0.00 0.00 0.00 42 1010.9
20181017033652 60 270 2.0 2.0 0.00 0.00 0.00 42 1010.9
20181017033351 60 225 1.0 1.0 0.00 0.00 0.00 41 1010.7
20181017033131 60 270 1.0 2.0 0.00 0.00 0.00 41 1010.7
20181017033050 60 270 1.0 2.0 0.00 0.00 0.00 41 1010.7
20181017032841 60 0 1.0 2.0 0.00 0.00 0.00 41 1010.8
20181017032749 60 0 1.0 2.0 0.00 0.00 0.00 41 1010.8
20181017032526 60 270 0.0 1.0 0.00 0.00 0.00 41 1010.8
20181017032448 60 270 0.0 1.0 0.00 0.00 0.00 41 1010.8
20181017032147 60 45 1.0 4.0 0.00 0.00 0.00 40 1010.8
20181017031930 60 76 3.0 4.0 0.00 0.00 0.00 42 1010.8
20181017031845 60 76 3.0 4.0 0.00 0.00 0.00 42 1010.8
20181017031619 60 41 1.0 3.0 0.00 0.00 0.00 42 1010.8
20181017031544 60 41 1.0 3.0 0.00 0.00 0.00 42 1010.8
20181017031324 60 75 3.0 3.0 0.00 0.00 0.00 41 1010.8
20181017031243 60 75 3.0 3.0 0.00 0.00 0.00 41 1010.8
20181017031046 61 351 3.0 3.0 0.00 0.00 0.00 41 1010.8
20181017030942 61 351 3.0 3.0 0.00 0.00 0.00 41 1010.8
20181017030414 61 10 2.0 3.0 0.00 0.00 0.00 40 1010.6
20181017030340 61 10 2.0 3.0 0.00 0.00 0.00 40 1010.6
20181017030130 61 318 1.0 3.0 0.00 0.00 0.00 40 1010.5
20181017030039 61 318 1.0 3.0 0.00 0.00 0.00 40 1010.5
20181017025822 61 42 3.0 3.0 0.00 0.00 0.00 40 1010.4
20181017025738 61 42 3.0 3.0 0.00 0.00 0.00 40 1010.4
20181017025517 61 42 3.0 3.0 0.00 0.00 0.00 40 1010.6
20181017025436 61 42 3.0 3.0 0.00 0.00 0.00 40 1010.6
20181017025137 61 76 2.0 3.0 0.00 0.00 0.00 39 1010.4
20181017024940 62 135 1.0 1.0 0.00 0.00 0.00 39 1010.6
20181017024836 62 135 1.0 1.0 0.00 0.00 0.00 39 1010.6
20181017024536 62 0 0.0 1.0 0.00 0.00 0.00 39 1010.5
20181017024333 62 0 0.0 1.0 0.00 0.00 0.00 39 1010.3
20181017024232 62 0 0.0 1.0 0.00 0.00 0.00 39 1010.3
20181017024015 62 254 0.0 1.0 0.00 0.00 0.00 38 1010.3
20181017023931 62 254 0.0 1.0 0.00 0.00 0.00 38 1010.3
20181017023028 63 270 0.0 1.0 0.00 0.00 0.00 37 1010.2
20181017022727 63 180 0.0 0.0 0.00 0.00 0.00 36 1010.4
20181017022507 64 180 0.0 1.0 0.00 0.00 0.00 35 1010.2
20181017022425 64 180 0.0 1.0 0.00 0.00 0.00 35 1010.2
20181017022124 64 180 0.0 1.0 0.00 0.00 0.00 35 1010.2
20181017021823 65 225 0.0 0.0 0.00 0.00 0.00 35 1010.1
20181017021604 65 225 0.0 0.0 0.00 0.00 0.00 35 1009.9
20181017021523 65 225 0.0 0.0 0.00 0.00 0.00 35 1009.9
20181017021221 66 225 0.0 1.0 0.00 0.00 0.00 34 1010.1
20181017020956 66 225 0.0 1.0 0.00 0.00 0.00 34 1010.1
20181017020920 66 225 0.0 1.0 0.00 0.00 0.00 34 1010.1
20181017020703 66 270 0.0 1.0 0.00 0.00 0.00 34 1010.1
20181017020621 66 270 0.0 1.0 0.00 0.00 0.00 34 1010.1
20181017020415 67 270 0.0 1.0 0.00 0.00 0.00 34 1010.1
20181017020318 67 270 0.0 1.0 0.00 0.00 0.00 34 1010.1
20181017020050 67 249 2.0 5.0 0.00 0.00 0.00 34 1009.8
20181017020017 67 249 2.0 5.0 0.00 0.00 0.00 34 1009.8
20181017015718 67 261 3.0 6.0 0.00 0.00 0.00 33 1009.9
20181017015503 67 270 6.0 6.0 0.00 0.00 0.00 32 1009.7
20181017015414 67 270 6.0 6.0 0.00 0.00 0.00 32 1009.7
20181017015113 67 265 4.0 6.0 0.00 0.00 0.00 32 1009.8
20181017014848 67 274 4.0 5.0 0.00 0.00 0.00 31 1009.8
20181017014814 67 274 4.0 5.0 0.00 0.00 0.00 31 1009.8
20181017014545 67 270 4.0 5.0 0.00 0.00 0.00 30 1009.8
20181017014511 67 270 4.0 5.0 0.00 0.00 0.00 30 1009.8
20181017014246 68 267 3.0 4.0 0.00 0.00 0.00 29 1009.8
20181017014210 68 267 3.0 4.0 0.00 0.00 0.00 29 1009.8
20181017013909 68 301 4.0 4.0 0.00 0.00 0.00 29 1009.6
20181017013655 68 279 4.0 4.0 0.00 0.00 0.00 28 1009.8
20181017013608 68 279 4.0 4.0 0.00 0.00 0.00 28 1009.8
20181017013338 69 225 1.0 3.0 0.00 0.00 0.00 26 1009.7
20181017013307 69 225 1.0 3.0 0.00 0.00 0.00 26 1009.7
20181017012740 70 225 0.0 1.0 0.00 0.00 0.00 24 1009.6
20181017012705 70 225 0.0 1.0 0.00 0.00 0.00 24 1009.6
20181017012446 70 204 1.0 1.0 0.00 0.00 0.00 24 1009.5
20181017012405 70 204 1.0 1.0 0.00 0.00 0.00 24 1009.5
20181017012102 71 225 0.0 1.0 0.00 0.00 0.00 23 1009.7
20181017011841 71 225 0.0 4.0 0.00 0.00 0.00 23 1009.8
20181017011801 71 225 0.0 4.0 0.00 0.00 0.00 23 1009.8
20181017011536 72 225 1.0 4.0 0.00 0.00 0.00 23 1009.8
20181017011500 72 225 1.0 4.0 0.00 0.00 0.00 23 1009.8
20181017010858 72 252 3.0 4.0 0.00 0.00 0.00 22 1009.7
20181017010558 73 261 4.0 4.0 0.00 0.00 0.00 21 1009.5
20181017010255 73 253 2.0 4.0 0.00 0.00 0.00 21 1009.5
20181017005954 73 249 1.0 5.0 0.00 0.00 0.00 20 1009.4
20181017004750 75 249 2.0 5.0 0.00 0.00 0.00 18 1009.4
20181017004526 75 265 2.0 5.0 0.00 0.00 0.00 18 1009.5
20181017004449 75 265 2.0 5.0 0.00 0.00 0.00 18 1009.5
20181017003847 76 220 1.0 6.0 0.00 0.00 0.00 17 1009.4
20181017003636 76 242 6.0 6.0 0.00 0.00 0.00 17 1009.4
20181017003546 76 242 6.0 6.0 0.00 0.00 0.00 17 1009.4
20181017003246 77 238 1.0 6.0 0.00 0.00 0.00 17 1009.5
20181017003026 77 210 1.0 6.0 0.00 0.00 0.00 16 1009.3
20181017002943 77 210 1.0 6.0 0.00 0.00 0.00 16 1009.3